Pagrindinis puslapis
METAR-TAF:

METAR-TAF

Oro uostai :

Sandane, Norvegija

platuma: 61-50N, ilguma: 006-07E, Aukštis: 6 m

Dabartinis oras

Ataskaita buvo paskelbta 19 minutes, ne 17:50 UTC
Vėjas 2 kt nuo kintamojo kryptimis
Temperatūra 2°C
Drėgmė 80%
Slėgis 989 hPa
Matomumas 10 km arba daugiau
Mažai debesys ne aukštis 3800 ft
Išsisklaidę debesys ne aukštis 5100 ft
Su prošvaistėmis ne aukštis 6500 ft

METAR: ENSD 291750Z VRB02KT 9999 FEW038 SCT051 BKN065 02/M01 Q0989 RMK WIND 1138FT VRB01KT

Laikas: 19:09 (18:09 UTC)


TAF: trūkstamas

Orai ataskaitas ir orų prognozės (METAR, TAF).

turimą stotys yra geltonos ir raudonos taškus žemėlapyje.

Perkelti pele per norėdami pamatyti stoties vardą.

Tada spustelėkite, norėdami matyti oro stebėjimo ir prognozės.

Norėdami pakeisti žemėlapį: spustelėkite ant žalios mygtukų su juodo kryžiaus žemyn,; žalią mygtuką su brūkšneliu, jei norite nutolinti; arba žalių rodyklių gretimoms žemėlapius.


METAR-TAF: